createdAt,value
2022-11-05T00:00:21.007Z,933.24
2022-11-05T00:01:21.958Z,933.18
2022-11-05T00:02:22.374Z,933.19
2022-11-05T00:03:22.780Z,933.18
2022-11-05T00:04:26.789Z,933.1
2022-11-05T00:05:23.599Z,933.11
2022-11-05T00:06:24.560Z,933.1
2022-11-05T00:07:25.444Z,933.13
2022-11-05T00:08:26.370Z,933.13
2022-11-05T00:09:27.002Z,933.14
2022-11-05T00:10:27.930Z,933.15
2022-11-05T00:11:28.541Z,933.17
2022-11-05T00:12:29.148Z,933.25
2022-11-05T00:13:29.565Z,933.26
2022-11-05T00:14:30.194Z,933.27
2022-11-05T00:15:30.397Z,933.31
2022-11-05T00:16:31.304Z,933.31
2022-11-05T00:17:31.506Z,933.34
2022-11-05T00:18:32.021Z,933.38
2022-11-05T00:19:32.365Z,933.39
2022-11-05T00:20:33.272Z,933.43
2022-11-05T00:21:33.509Z,933.47
2022-11-05T00:22:34.413Z,933.46
2022-11-05T00:23:34.687Z,933.52
2022-11-05T00:24:35.598Z,933.54
2022-11-05T00:25:36.192Z,933.55
2022-11-05T00:26:36.392Z,933.55
2022-11-05T00:27:36.598Z,933.6
2022-11-05T00:28:37.077Z,933.61
2022-11-05T00:29:37.706Z,933.63
2022-11-05T00:30:38.592Z,933.6
2022-11-05T00:31:38.797Z,933.66
2022-11-05T00:32:39.717Z,933.63
2022-11-05T00:33:39.851Z,933.62
2022-11-05T00:34:40.333Z,933.64
2022-11-05T00:35:40.814Z,933.7
2022-11-05T00:36:41.032Z,933.65
2022-11-05T00:37:45.718Z,933.67
2022-11-05T00:38:42.644Z,933.66
2022-11-05T00:39:43.251Z,933.71
2022-11-05T00:40:43.491Z,933.71
2022-11-05T00:41:43.688Z,933.72
2022-11-05T00:42:44.575Z,933.73
2022-11-05T00:43:45.527Z,933.7
2022-11-05T00:44:46.414Z,933.74
2022-11-05T00:45:46.636Z,933.76
2022-11-05T00:46:47.587Z,933.84
2022-11-05T00:47:48.345Z,933.8
2022-11-05T00:48:48.568Z,933.82
2022-11-05T00:49:49.472Z,933.8
2022-11-05T00:50:49.654Z,933.8
2022-11-05T00:51:50.581Z,933.87
2022-11-05T00:52:50.905Z,933.81
2022-11-05T00:53:51.101Z,933.84
2022-11-05T00:54:51.986Z,933.89
2022-11-05T00:55:52.461Z,933.86
2022-11-05T00:56:53.392Z,933.84
2022-11-05T00:57:54.226Z,933.83
2022-11-05T00:58:55.137Z,933.84
2022-11-05T00:59:55.568Z,933.85
2022-11-05T01:00:55.797Z,933.82
2022-11-05T01:01:56.991Z,933.82
2022-11-05T01:02:57.624Z,933.79
2022-11-05T01:03:58.499Z,933.79
2022-11-05T01:04:59.384Z,933.81
2022-11-05T01:06:00.279Z,933.77
2022-11-05T01:07:01.058Z,933.87
2022-11-05T01:08:01.951Z,933.89
2022-11-05T01:09:03.010Z,933.9
2022-11-05T01:10:03.638Z,933.96
2022-11-05T01:11:04.565Z,934
2022-11-05T01:12:05.471Z,934.01
2022-11-05T01:13:10.154Z,934.01
2022-11-05T01:14:06.937Z,934.07
2022-11-05T01:15:07.137Z,934.07
2022-11-05T01:16:07.747Z,934.08
2022-11-05T01:17:08.060Z,934.1
2022-11-05T01:18:08.960Z,934.13
2022-11-05T01:19:09.924Z,934.11
2022-11-05T01:20:10.832Z,934.12
2022-11-05T01:21:11.746Z,934.12
2022-11-05T01:22:12.780Z,934.14
2022-11-05T01:23:13.824Z,934.13
2022-11-05T01:24:13.406Z,934.13
2022-11-05T01:25:14.290Z,934.15
2022-11-05T01:26:15.194Z,934.2
2022-11-05T01:27:16.085Z,934.22
2022-11-05T01:28:17.041Z,934.24
2022-11-05T01:29:17.957Z,934.31
2022-11-05T01:30:18.866Z,934.34
2022-11-05T01:31:19.755Z,934.35
2022-11-05T01:32:20.667Z,934.34
2022-11-05T01:33:21.274Z,934.34
2022-11-05T01:34:21.493Z,934.32
2022-11-05T01:35:21.673Z,934.34
2022-11-05T01:36:22.582Z,934.27
2022-11-05T01:37:23.104Z,934.24
2022-11-05T01:38:23.721Z,934.28
2022-11-05T01:39:24.328Z,934.25
2022-11-05T01:40:25.242Z,934.24
2022-11-05T01:41:25.569Z,934.24
2022-11-05T01:42:26.187Z,934.24
2022-11-05T01:43:26.801Z,934.22
2022-11-05T01:44:27.205Z,934.24
2022-11-05T01:45:27.833Z,934.2
2022-11-05T01:46:28.745Z,934.21
2022-11-05T01:47:29.632Z,934.25
2022-11-05T01:48:29.822Z,934.24
2022-11-05T01:49:30.764Z,934.26
2022-11-05T01:50:30.969Z,934.28
2022-11-05T01:51:31.902Z,934.32
2022-11-05T01:52:32.498Z,934.36
2022-11-05T01:53:33.417Z,934.32
2022-11-05T01:54:33.788Z,934.37
2022-11-05T01:55:34.710Z,934.35
2022-11-05T01:56:34.916Z,934.38
2022-11-05T01:57:35.805Z,934.37
2022-11-05T01:58:36.156Z,934.34
2022-11-05T01:59:36.517Z,934.37
2022-11-05T02:00:36.712Z,934.4
2022-11-05T02:01:37.415Z,934.41
2022-11-05T02:02:38.009Z,934.41
2022-11-05T02:03:38.695Z,934.41
2022-11-05T02:04:39.426Z,934.41
2022-11-05T02:05:40.342Z,934.39
2022-11-05T02:06:40.927Z,934.36
2022-11-05T02:07:41.315Z,934.36
2022-11-05T02:08:41.507Z,934.36
2022-11-05T02:09:42.443Z,934.33
2022-11-05T02:10:43.367Z,934.36
2022-11-05T02:11:43.983Z,934.33
2022-11-05T02:12:44.460Z,934.35
2022-11-05T02:13:44.667Z,934.35
2022-11-05T02:14:44.791Z,934.34
2022-11-05T02:15:45.696Z,934.35
2022-11-05T02:16:46.311Z,934.33
2022-11-05T02:17:46.942Z,934.33
2022-11-05T02:18:47.416Z,934.31
2022-11-05T02:19:47.932Z,934.31
2022-11-05T02:20:52.116Z,934.32
2022-11-05T02:21:48.974Z,934.3
2022-11-05T02:22:49.703Z,934.33
2022-11-05T02:23:50.321Z,934.31
2022-11-05T02:24:50.475Z,934.32
2022-11-05T02:25:51.371Z,934.32
2022-11-05T02:26:51.982Z,934.31
2022-11-05T02:27:52.594Z,934.31
2022-11-05T02:28:52.773Z,934.26
2022-11-05T02:29:53.404Z,934.26
2022-11-05T02:30:54.328Z,934.25
2022-11-05T02:31:54.503Z,934.23
2022-11-05T02:32:54.684Z,934.24
2022-11-05T02:33:55.344Z,934.29
2022-11-05T02:34:55.482Z,934.28
2022-11-05T02:35:56.107Z,934.3
2022-11-05T02:36:57.003Z,934.29
2022-11-05T02:37:57.247Z,934.27
2022-11-05T02:38:57.871Z,934.3
2022-11-05T02:39:58.478Z,934.34
2022-11-05T02:40:58.680Z,934.31
2022-11-05T02:42:03.597Z,934.32
2022-11-05T02:42:59.049Z,934.37
2022-11-05T02:43:59.381Z,934.32
2022-11-05T02:44:59.779Z,934.38
2022-11-05T02:46:00.684Z,934.35
2022-11-05T02:47:01.293Z,934.32
2022-11-05T02:48:01.774Z,934.32
2022-11-05T02:49:02.661Z,934.32
2022-11-05T02:50:02.908Z,934.36
2022-11-05T02:51:03.514Z,934.35
2022-11-05T02:52:04.154Z,934.41
2022-11-05T02:53:04.386Z,934.41
2022-11-05T02:54:05.257Z,934.43
2022-11-05T02:55:05.662Z,934.41
2022-11-05T02:56:05.867Z,934.42
2022-11-05T02:57:06.476Z,934.43
2022-11-05T02:58:06.679Z,934.42
2022-11-05T02:59:07.310Z,934.43
2022-11-05T03:00:08.197Z,934.46
2022-11-05T03:01:09.222Z,934.4
2022-11-05T03:02:09.792Z,934.39
2022-11-05T03:03:10.708Z,934.39
2022-11-05T03:04:11.010Z,934.43
2022-11-05T03:05:11.331Z,934.41
2022-11-05T03:06:12.237Z,934.47
2022-11-05T03:07:12.717Z,934.42
2022-11-05T03:08:13.059Z,934.42
2022-11-05T03:09:13.150Z,934.44
2022-11-05T03:10:13.458Z,934.49
2022-11-05T03:11:13.942Z,934.5
2022-11-05T03:12:14.137Z,934.51
2022-11-05T03:13:14.620Z,934.51
2022-11-05T03:14:15.546Z,934.52
2022-11-05T03:15:16.532Z,934.53
2022-11-05T03:16:16.719Z,934.54
2022-11-05T03:17:17.328Z,934.58
2022-11-05T03:18:17.506Z,934.57
2022-11-05T03:19:18.386Z,934.59
2022-11-05T03:20:19.008Z,934.64
2022-11-05T03:21:19.638Z,934.67
2022-11-05T03:22:20.114Z,934.71
2022-11-05T03:23:20.335Z,934.67
2022-11-05T03:24:20.927Z,934.7
2022-11-05T03:25:21.312Z,934.76
2022-11-05T03:26:22.231Z,934.73
2022-11-05T03:27:22.441Z,934.72
2022-11-05T03:28:23.323Z,934.76
2022-11-05T03:29:23.503Z,934.8
2022-11-05T03:30:24.390Z,934.85
2022-11-05T03:31:24.732Z,934.89
2022-11-05T03:32:25.638Z,934.89
2022-11-05T03:33:26.548Z,934.89
2022-11-05T03:34:27.455Z,934.86
2022-11-05T03:35:27.788Z,934.86
2022-11-05T03:36:28.694Z,934.89
2022-11-05T03:37:29.321Z,934.91
2022-11-05T03:38:30.243Z,935
2022-11-05T03:39:30.865Z,934.98
2022-11-05T03:40:31.788Z,934.99
2022-11-05T03:41:32.692Z,934.92
2022-11-05T03:42:33.304Z,934.92
2022-11-05T03:43:33.922Z,934.95
2022-11-05T03:44:34.233Z,935.07
2022-11-05T03:45:34.636Z,935.03
2022-11-05T03:46:35.265Z,935
2022-11-05T03:47:35.869Z,934.94
2022-11-05T03:48:36.810Z,934.99
2022-11-05T03:49:37.013Z,935.01
2022-11-05T03:50:41.190Z,934.99
2022-11-05T03:51:38.837Z,934.96
2022-11-05T03:52:39.025Z,934.96
2022-11-05T03:53:39.979Z,934.95
2022-11-05T03:54:40.600Z,934.95
2022-11-05T03:55:41.121Z,934.99
2022-11-05T03:56:41.437Z,934.99
2022-11-05T03:57:41.754Z,935.03
2022-11-05T03:58:42.472Z,935.06
2022-11-05T03:59:42.956Z,935.07
2022-11-05T04:00:43.155Z,935.09
2022-11-05T04:01:43.660Z,935.1
2022-11-05T04:02:43.728Z,935.08
2022-11-05T04:03:44.104Z,935.06
2022-11-05T04:04:44.313Z,935.12
2022-11-05T04:05:44.636Z,935.17
2022-11-05T04:06:45.267Z,935.17
2022-11-05T04:07:45.892Z,935.17
2022-11-05T04:08:46.809Z,935.19
2022-11-05T04:09:47.437Z,935.19
2022-11-05T04:10:48.377Z,935.15
2022-11-05T04:11:49.256Z,935.13
2022-11-05T04:12:49.736Z,935.18
2022-11-05T04:13:50.341Z,935.14
2022-11-05T04:14:50.964Z,935.17
2022-11-05T04:15:52.041Z,935.19
2022-11-05T04:16:52.368Z,935.2
2022-11-05T04:17:52.988Z,935.25
2022-11-05T04:18:53.898Z,935.22
2022-11-05T04:19:54.205Z,935.23
2022-11-05T04:20:55.138Z,935.15
2022-11-05T04:21:56.052Z,935.21
2022-11-05T04:22:56.655Z,935.18
2022-11-05T04:23:57.221Z,935.26
2022-11-05T04:24:58.124Z,935.32
2022-11-05T04:25:59.121Z,935.29
2022-11-05T04:26:59.709Z,935.32
2022-11-05T04:28:00.638Z,935.27
2022-11-05T04:29:05.220Z,935.28
2022-11-05T04:30:01.868Z,935.26
2022-11-05T04:31:02.772Z,935.35
2022-11-05T04:32:03.247Z,935.35
2022-11-05T04:33:03.857Z,935.35
2022-11-05T04:34:04.268Z,935.41
2022-11-05T04:35:05.162Z,935.41
2022-11-05T04:36:05.964Z,935.36
2022-11-05T04:37:06.571Z,935.31
2022-11-05T04:38:07.478Z,935.33
2022-11-05T04:39:07.719Z,935.37
2022-11-05T04:40:08.610Z,935.37
2022-11-05T04:41:09.494Z,935.42
2022-11-05T04:42:10.106Z,935.41
2022-11-05T04:43:15.024Z,935.37
2022-11-05T04:44:11.788Z,935.36
2022-11-05T04:45:12.709Z,935.42
2022-11-05T04:46:13.139Z,935.38
2022-11-05T04:47:13.322Z,935.42
2022-11-05T04:48:13.659Z,935.4
2022-11-05T04:49:14.566Z,935.41
2022-11-05T04:50:14.768Z,935.38
2022-11-05T04:51:15.289Z,935.41
2022-11-05T04:52:15.617Z,935.47
2022-11-05T04:53:15.798Z,935.46
2022-11-05T04:54:16.025Z,935.48
2022-11-05T04:55:16.640Z,935.51
2022-11-05T04:56:16.744Z,935.52
2022-11-05T04:57:17.374Z,935.55
2022-11-05T04:58:17.990Z,935.57
2022-11-05T04:59:18.197Z,935.59
2022-11-05T05:00:19.133Z,935.6
2022-11-05T05:01:19.587Z,935.57
2022-11-05T05:02:20.186Z,935.59
2022-11-05T05:03:20.130Z,935.59
2022-11-05T05:04:20.339Z,935.55
2022-11-05T05:05:21.265Z,935.56
2022-11-05T05:06:22.299Z,935.55
2022-11-05T05:07:23.260Z,935.56
2022-11-05T05:08:23.588Z,935.54
2022-11-05T05:09:24.186Z,935.56
2022-11-05T05:10:24.374Z,935.6
2022-11-05T05:11:24.706Z,935.57
2022-11-05T05:12:25.599Z,935.6
2022-11-05T05:13:26.192Z,935.6
2022-11-05T05:14:26.383Z,935.6
2022-11-05T05:15:26.996Z,935.63
2022-11-05T05:16:27.301Z,935.63
2022-11-05T05:17:28.181Z,935.63
2022-11-05T05:18:29.093Z,935.63
2022-11-05T05:19:29.833Z,935.63
2022-11-05T05:20:30.438Z,935.66
2022-11-05T05:21:30.954Z,935.65
2022-11-05T05:22:31.133Z,935.67
2022-11-05T05:23:32.081Z,935.7
2022-11-05T05:24:32.374Z,935.71
2022-11-05T05:25:32.378Z,935.76
2022-11-05T05:26:33.072Z,935.76
2022-11-05T05:27:33.986Z,935.79
2022-11-05T05:28:34.898Z,935.78
2022-11-05T05:29:35.091Z,935.82
2022-11-05T05:30:35.979Z,935.84
2022-11-05T05:31:36.126Z,935.82
2022-11-05T05:32:36.466Z,935.82
2022-11-05T05:33:36.665Z,935.81
2022-11-05T05:34:36.847Z,935.8
2022-11-05T05:35:37.081Z,935.81
2022-11-05T05:36:37.706Z,935.86
2022-11-05T05:37:38.183Z,935.89
2022-11-05T05:38:38.392Z,935.85
2022-11-05T05:39:38.625Z,935.87
2022-11-05T05:40:38.944Z,935.85
2022-11-05T05:41:39.138Z,935.88
2022-11-05T05:42:43.025Z,935.89
2022-11-05T05:43:40.793Z,935.88
2022-11-05T05:44:41.387Z,935.93
2022-11-05T05:45:41.867Z,935.97
2022-11-05T05:46:42.568Z,935.95
2022-11-05T05:47:42.773Z,935.94
2022-11-05T05:48:43.260Z,935.91
2022-11-05T05:49:43.746Z,935.94
2022-11-05T05:50:43.935Z,935.98
2022-11-05T05:51:44.457Z,935.99
2022-11-05T05:52:45.097Z,936.01
2022-11-05T05:53:45.708Z,936
2022-11-05T05:54:46.680Z,935.97
2022-11-05T05:55:46.847Z,936
2022-11-05T05:56:47.258Z,936.03
2022-11-05T05:57:47.865Z,936.02
2022-11-05T05:58:48.050Z,936
2022-11-05T05:59:48.680Z,936.01
2022-11-05T06:00:49.295Z,936
2022-11-05T06:01:50.257Z,936.03
2022-11-05T06:02:50.731Z,936.02
2022-11-05T06:03:50.966Z,936.02
2022-11-05T06:04:51.197Z,936.04
2022-11-05T06:05:51.377Z,936.03
2022-11-05T06:06:51.678Z,936.04
2022-11-05T06:07:51.878Z,936.05
2022-11-05T06:08:52.765Z,936.02
2022-11-05T06:09:53.693Z,936.04
2022-11-05T06:10:53.935Z,936.06
2022-11-05T06:11:54.283Z,936.07
2022-11-05T06:12:54.470Z,936.09
2022-11-05T06:13:55.277Z,936.14
2022-11-05T06:14:55.464Z,936.12
2022-11-05T06:15:55.943Z,936.13
2022-11-05T06:16:56.711Z,936.19
2022-11-05T06:17:57.341Z,936.17
2022-11-05T06:18:58.234Z,936.2
2022-11-05T06:19:59.142Z,936.2
2022-11-05T06:20:59.330Z,936.18
2022-11-05T06:21:59.599Z,936.21
2022-11-05T06:22:59.784Z,936.22
2022-11-05T06:24:00.415Z,936.26
2022-11-05T06:25:01.062Z,936.26
2022-11-05T06:26:01.977Z,936.3
2022-11-05T06:27:02.987Z,936.34
2022-11-05T06:28:03.917Z,936.3
2022-11-05T06:29:04.020Z,936.31
2022-11-05T06:30:04.901Z,936.36
2022-11-05T06:31:05.139Z,936.38
2022-11-05T06:32:05.785Z,936.4
2022-11-05T06:33:06.697Z,936.42
2022-11-05T06:34:07.170Z,936.46
2022-11-05T06:35:07.779Z,936.47
2022-11-05T06:36:08.685Z,936.47
2022-11-05T06:37:09.483Z,936.5
2022-11-05T06:38:10.087Z,936.49
2022-11-05T06:39:10.995Z,936.49
2022-11-05T06:40:11.704Z,936.49
2022-11-05T06:41:12.595Z,936.52
2022-11-05T06:42:20.282Z,936.52
2022-11-05T06:43:14.338Z,936.53
2022-11-05T06:44:14.535Z,936.54
2022-11-05T06:45:15.419Z,936.55
2022-11-05T06:46:16.346Z,936.55
2022-11-05T06:47:16.702Z,936.58
2022-11-05T06:48:17.606Z,936.57
2022-11-05T06:49:18.495Z,936.61
2022-11-05T06:50:18.696Z,936.69
2022-11-05T06:51:18.907Z,936.72
2022-11-05T06:52:19.426Z,936.73
2022-11-05T06:53:19.657Z,936.76
2022-11-05T06:54:20.567Z,936.77
2022-11-05T06:55:21.522Z,936.84
2022-11-05T06:56:22.484Z,936.82
2022-11-05T06:57:22.625Z,936.86
2022-11-05T06:58:22.972Z,936.85
2022-11-05T06:59:23.303Z,936.86
2022-11-05T07:00:23.932Z,936.86
2022-11-05T07:01:24.518Z,936.82
2022-11-05T07:02:24.657Z,936.88
2022-11-05T07:03:24.883Z,936.89
2022-11-05T07:04:25.074Z,936.92
2022-11-05T07:05:26.000Z,936.9
2022-11-05T07:06:26.917Z,936.86
2022-11-05T07:07:27.069Z,936.9
2022-11-05T07:08:27.258Z,936.9
2022-11-05T07:09:27.463Z,936.91
2022-11-05T07:10:28.201Z,936.91
2022-11-05T07:11:28.397Z,936.95
2022-11-05T07:12:28.875Z,936.94
2022-11-05T07:13:29.360Z,936.95
2022-11-05T07:14:29.974Z,936.97
2022-11-05T07:15:30.861Z,936.99
2022-11-05T07:16:31.650Z,937.02
2022-11-05T07:17:31.956Z,937.05
2022-11-05T07:18:32.294Z,937.03
2022-11-05T07:19:33.193Z,937.04
2022-11-05T07:20:34.693Z,937.08
2022-11-05T07:21:34.702Z,937.11
2022-11-05T07:22:35.044Z,937.14
2022-11-05T07:23:35.652Z,937.11
2022-11-05T07:24:36.540Z,937.16
2022-11-05T07:25:36.757Z,937.22
2022-11-05T07:26:37.657Z,937.22
2022-11-05T07:27:37.884Z,937.21
2022-11-05T07:28:38.099Z,937.15
2022-11-05T07:29:38.285Z,937.15
2022-11-05T07:30:39.176Z,937.13
2022-11-05T07:31:40.081Z,937.16
2022-11-05T07:32:40.291Z,937.18
2022-11-05T07:33:40.631Z,937.19
2022-11-05T07:34:40.832Z,937.22
2022-11-05T07:35:41.747Z,937.25
2022-11-05T07:36:42.653Z,937.21
2022-11-05T07:37:43.192Z,937.22
2022-11-05T07:38:44.233Z,937.27
2022-11-05T07:39:44.398Z,937.27
2022-11-05T07:40:45.021Z,937.31
2022-11-05T07:41:45.491Z,937.31
2022-11-05T07:42:46.197Z,937.36
2022-11-05T07:43:46.397Z,937.38
2022-11-05T07:44:47.038Z,937.36
2022-11-05T07:45:47.229Z,937.34
2022-11-05T07:46:48.132Z,937.3
2022-11-05T07:47:49.116Z,937.32
2022-11-05T07:48:50.027Z,937.3
2022-11-05T07:49:50.215Z,937.38
2022-11-05T07:50:50.711Z,937.36
2022-11-05T07:51:51.046Z,937.38
2022-11-05T07:52:51.278Z,937.4
2022-11-05T07:53:52.160Z,937.36
2022-11-05T07:54:52.356Z,937.38
2022-11-05T07:55:52.604Z,937.35
2022-11-05T07:56:53.211Z,937.37
2022-11-05T07:57:53.567Z,937.38
2022-11-05T07:58:53.875Z,937.44
2022-11-05T07:59:54.787Z,937.46
2022-11-05T08:00:55.893Z,937.41
2022-11-05T08:01:56.227Z,937.47
2022-11-05T08:02:59.676Z,937.46
2022-11-05T08:03:57.387Z,937.48
2022-11-05T08:04:58.303Z,937.44
2022-11-05T08:05:59.239Z,937.45
2022-11-05T08:06:59.882Z,937.49
2022-11-05T08:08:00.558Z,937.52
2022-11-05T08:09:01.471Z,937.49
2022-11-05T08:10:02.383Z,937.51
2022-11-05T08:11:02.982Z,937.49
2022-11-05T08:12:03.550Z,937.48
2022-11-05T08:13:03.490Z,937.47
2022-11-05T08:14:03.758Z,937.5
2022-11-05T08:15:04.405Z,937.51
2022-11-05T08:16:05.040Z,937.5
2022-11-05T08:17:05.535Z,937.5
2022-11-05T08:18:06.349Z,937.52
2022-11-05T08:19:06.698Z,937.54
2022-11-05T08:20:06.911Z,937.53
2022-11-05T08:21:07.098Z,937.55
2022-11-05T08:22:08.009Z,937.59
2022-11-05T08:23:08.810Z,937.56
2022-11-05T08:24:08.874Z,937.61
2022-11-05T08:25:09.062Z,937.65
2022-11-05T08:26:09.707Z,937.62
2022-11-05T08:27:10.340Z,937.64
2022-11-05T08:28:11.036Z,937.64
2022-11-05T08:29:11.937Z,937.59
2022-11-05T08:30:12.531Z,937.62
2022-11-05T08:31:13.167Z,937.65
2022-11-05T08:32:13.831Z,937.62
2022-11-05T08:33:15.042Z,937.6
2022-11-05T08:34:15.588Z,937.57
2022-11-05T08:35:16.484Z,937.61
2022-11-05T08:36:16.686Z,937.62
2022-11-05T08:37:16.869Z,937.61
2022-11-05T08:38:17.496Z,937.63
2022-11-05T08:39:17.704Z,937.61
2022-11-05T08:40:17.892Z,937.57
2022-11-05T08:41:18.867Z,937.57
2022-11-05T08:42:19.344Z,937.6
2022-11-05T08:43:19.958Z,937.58
2022-11-05T08:44:20.592Z,937.56
2022-11-05T08:45:21.478Z,937.58
2022-11-05T08:46:22.273Z,937.56
2022-11-05T08:47:22.686Z,937.55
2022-11-05T08:48:23.365Z,937.54
2022-11-05T08:49:24.269Z,937.57
2022-11-05T08:50:24.557Z,937.57
2022-11-05T08:51:24.765Z,937.55
2022-11-05T08:52:25.392Z,937.53
2022-11-05T08:53:25.632Z,937.52
2022-11-05T08:54:26.545Z,937.56
2022-11-05T08:55:26.766Z,937.58
2022-11-05T08:56:26.996Z,937.56
2022-11-05T08:57:27.898Z,937.58
2022-11-05T08:58:28.671Z,937.58
2022-11-05T08:59:29.302Z,937.61
2022-11-05T09:00:29.914Z,937.64
2022-11-05T09:01:31.087Z,937.64
2022-11-05T09:02:31.537Z,937.67
2022-11-05T09:03:32.527Z,937.66
2022-11-05T09:04:32.717Z,937.71
2022-11-05T09:05:33.649Z,937.7
2022-11-05T09:06:33.952Z,937.68
2022-11-05T09:07:34.853Z,937.66
2022-11-05T09:08:35.380Z,937.71
2022-11-05T09:09:35.863Z,937.74
2022-11-05T09:10:36.791Z,937.78
2022-11-05T09:11:57.356Z,937.75
2022-11-05T09:12:38.550Z,937.82
2022-11-05T09:13:39.451Z,937.8
2022-11-05T09:14:39.937Z,937.81
2022-11-05T09:15:40.429Z,937.75
2022-11-05T09:16:41.054Z,937.77
2022-11-05T09:17:41.332Z,937.73
2022-11-05T09:18:41.705Z,937.72
2022-11-05T09:19:42.187Z,937.69
2022-11-05T09:20:42.833Z,937.72
2022-11-05T09:21:43.319Z,937.73
2022-11-05T09:22:43.936Z,937.76
2022-11-05T09:23:44.164Z,937.74
2022-11-05T09:24:44.798Z,937.76
2022-11-05T09:25:45.707Z,937.79
2022-11-05T09:26:46.461Z,937.83
2022-11-05T09:27:46.642Z,937.82
2022-11-05T09:28:47.621Z,937.86
2022-11-05T09:29:48.107Z,937.85
2022-11-05T09:30:49.013Z,937.87
2022-11-05T09:31:49.629Z,937.85
2022-11-05T09:32:49.966Z,937.84
2022-11-05T09:33:50.876Z,937.86
2022-11-05T09:34:51.789Z,937.82
2022-11-05T09:35:52.422Z,937.84
2022-11-05T09:36:53.058Z,937.84
2022-11-05T09:37:58.244Z,937.89
2022-11-05T09:38:54.146Z,937.89
2022-11-05T09:39:54.354Z,937.87
2022-11-05T09:40:55.007Z,937.88
2022-11-05T09:41:55.525Z,937.92
2022-11-05T09:42:56.425Z,937.89
2022-11-05T09:43:57.065Z,937.92
2022-11-05T09:44:57.995Z,937.91
2022-11-05T09:45:58.615Z,937.9
2022-11-05T09:46:58.803Z,937.9
2022-11-05T09:47:59.716Z,937.92
2022-11-05T09:49:00.417Z,937.93
2022-11-05T09:50:01.063Z,937.92
2022-11-05T09:51:01.622Z,937.97
2022-11-05T09:52:02.508Z,937.93
2022-11-05T09:53:02.990Z,937.96
2022-11-05T09:54:03.131Z,937.99
2022-11-05T09:55:03.386Z,937.98
2022-11-05T09:56:03.576Z,937.97
2022-11-05T09:57:04.527Z,938.01
2022-11-05T09:58:04.792Z,937.98
2022-11-05T09:59:05.161Z,938.03
2022-11-05T10:00:05.371Z,938.04
2022-11-05T10:01:06.076Z,938.04
2022-11-05T10:02:06.728Z,938.09
2022-11-05T10:03:06.811Z,938.07
2022-11-05T10:04:07.636Z,938.06
2022-11-05T10:05:09.889Z,938.05
2022-11-05T10:06:08.450Z,938.07
2022-11-05T10:07:09.067Z,938.08
2022-11-05T10:08:09.969Z,938.14
2022-11-05T10:09:10.404Z,938.11
2022-11-05T10:10:11.065Z,938.12
2022-11-05T10:11:11.564Z,938.1
2022-11-05T10:12:12.512Z,938.09
2022-11-05T10:13:13.720Z,938.08
2022-11-05T10:14:13.543Z,938.07
2022-11-05T10:15:14.158Z,938.09
2022-11-05T10:16:15.062Z,938.11
2022-11-05T10:17:15.973Z,938.17
2022-11-05T10:18:16.361Z,938.15
2022-11-05T10:19:16.591Z,938.13
2022-11-05T10:20:16.844Z,938.13
2022-11-05T10:21:17.063Z,938.17
2022-11-05T10:22:17.749Z,938.11
2022-11-05T10:23:18.683Z,938.15
2022-11-05T10:24:18.868Z,938.16
2022-11-05T10:25:19.083Z,938.18
2022-11-05T10:26:19.993Z,938.19
2022-11-05T10:27:20.218Z,938.24
2022-11-05T10:28:20.419Z,938.22
2022-11-05T10:29:20.692Z,938.18
2022-11-05T10:30:21.301Z,938.23
2022-11-05T10:31:22.222Z,938.23
2022-11-05T10:32:22.479Z,938.26
2022-11-05T10:33:22.970Z,938.26
2022-11-05T10:34:23.900Z,938.23
2022-11-05T10:35:24.095Z,938.26
2022-11-05T10:36:25.001Z,938.26
2022-11-05T10:37:25.490Z,938.28
2022-11-05T10:38:25.910Z,938.23
2022-11-05T10:39:26.614Z,938.26
2022-11-05T10:40:26.933Z,938.22
2022-11-05T10:41:27.145Z,938.23
2022-11-05T10:42:27.897Z,938.25
2022-11-05T10:43:28.082Z,938.23
2022-11-05T10:44:29.004Z,938.31
2022-11-05T10:45:29.349Z,938.28
2022-11-05T10:46:29.551Z,938.29
2022-11-05T10:47:29.730Z,938.33
2022-11-05T10:48:30.219Z,938.32
2022-11-05T10:49:31.281Z,938.29
2022-11-05T10:50:32.192Z,938.35
2022-11-05T10:51:32.405Z,938.33
2022-11-05T10:52:33.323Z,938.35
2022-11-05T10:53:33.819Z,938.37
2022-11-05T10:54:34.737Z,938.29
2022-11-05T10:55:34.987Z,938.38
2022-11-05T10:56:35.201Z,938.37
2022-11-05T10:57:35.581Z,938.34
2022-11-05T10:58:35.781Z,938.34
2022-11-05T10:59:36.771Z,938.36
2022-11-05T11:00:37.767Z,938.42
2022-11-05T11:01:38.442Z,938.42
2022-11-05T11:02:38.507Z,938.43
2022-11-05T11:03:39.002Z,938.37
2022-11-05T11:04:39.327Z,938.38
2022-11-05T11:05:39.913Z,938.4
2022-11-05T11:06:40.107Z,938.4
2022-11-05T11:07:40.300Z,938.38
2022-11-05T11:08:40.482Z,938.4
2022-11-05T11:09:40.915Z,938.38
2022-11-05T11:10:41.187Z,938.38
2022-11-05T11:11:42.075Z,938.37
2022-11-05T11:12:42.732Z,938.33
2022-11-05T11:13:42.930Z,938.36
2022-11-05T11:14:43.144Z,938.36
2022-11-05T11:15:43.764Z,938.37
2022-11-05T11:16:43.976Z,938.38
2022-11-05T11:17:44.618Z,938.35
2022-11-05T11:18:45.524Z,938.38
2022-11-05T11:19:45.842Z,938.4
2022-11-05T11:20:46.059Z,938.44
2022-11-05T11:21:46.700Z,938.4
2022-11-05T11:22:47.323Z,938.36
2022-11-05T11:23:48.242Z,938.35
2022-11-05T11:24:49.168Z,938.42
2022-11-05T11:25:50.203Z,938.43
2022-11-05T11:26:50.401Z,938.47
2022-11-05T11:27:51.348Z,938.46
2022-11-05T11:28:52.251Z,938.44
2022-11-05T11:29:52.481Z,938.46
2022-11-05T11:30:52.734Z,938.45
2022-11-05T11:31:53.670Z,938.48
2022-11-05T11:32:54.161Z,938.43
2022-11-05T11:33:54.581Z,938.47
2022-11-05T11:34:55.495Z,938.46
2022-11-05T11:35:55.694Z,938.45
2022-11-05T11:36:56.330Z,938.46
2022-11-05T11:37:56.826Z,938.47
2022-11-05T11:38:57.733Z,938.48
2022-11-05T11:39:58.465Z,938.49
2022-11-05T11:40:59.451Z,938.49
2022-11-05T11:41:59.644Z,938.5
2022-11-05T11:43:00.178Z,938.52
2022-11-05T11:44:01.004Z,938.47
2022-11-05T11:45:01.212Z,938.49
2022-11-05T11:46:05.506Z,938.54
2022-11-05T11:47:02.527Z,938.48
2022-11-05T11:48:03.441Z,938.54
2022-11-05T11:49:04.065Z,938.55
2022-11-05T11:50:04.346Z,938.48
2022-11-05T11:51:04.627Z,938.48
2022-11-05T11:52:05.259Z,938.49
2022-11-05T11:53:05.459Z,938.48
2022-11-05T11:54:06.500Z,938.48
2022-11-05T11:55:07.141Z,938.48
2022-11-05T11:56:07.558Z,938.51
2022-11-05T11:57:11.506Z,938.56
2022-11-05T11:58:08.454Z,938.53
2022-11-05T11:59:08.646Z,938.55
2022-11-05T12:00:25.504Z,938.52
2022-11-05T12:01:26.418Z,938.54
2022-11-05T12:02:27.355Z,938.54
2022-11-05T12:03:28.179Z,938.53
2022-11-05T12:04:28.542Z,938.59
2022-11-05T12:05:29.469Z,938.56
2022-11-05T12:06:30.108Z,938.58
2022-11-05T12:07:30.722Z,938.56
2022-11-05T12:08:31.629Z,938.52
2022-11-05T12:09:32.113Z,938.59
2022-11-05T12:10:33.126Z,938.58
2022-11-05T12:11:33.359Z,938.53
2022-11-05T12:12:33.991Z,938.57
2022-11-05T12:13:34.667Z,938.55
2022-11-05T12:14:35.149Z,938.56
2022-11-05T12:15:35.561Z,938.54
2022-11-05T12:16:36.451Z,938.51
2022-11-05T12:17:36.854Z,938.53
2022-11-05T12:18:37.473Z,938.53
2022-11-05T12:19:38.088Z,938.57
2022-11-05T12:20:38.800Z,938.57
2022-11-05T12:21:52.397Z,938.64
2022-11-05T12:22:40.644Z,938.62
2022-11-05T12:23:41.543Z,938.61
2022-11-05T12:24:41.729Z,938.65
2022-11-05T12:25:42.342Z,938.66
2022-11-05T12:26:43.378Z,938.7
2022-11-05T12:27:44.270Z,938.7
2022-11-05T12:29:04.997Z,938.7
2022-11-05T12:29:46.113Z,938.69
2022-11-05T12:30:47.094Z,938.68
2022-11-05T12:31:47.583Z,938.74
2022-11-05T12:32:47.846Z,938.7
2022-11-05T12:33:48.250Z,938.72
2022-11-05T12:34:49.160Z,938.69
2022-11-05T12:35:53.424Z,938.69
2022-11-05T12:36:50.346Z,938.69
2022-11-05T12:37:51.248Z,938.66
2022-11-05T12:38:51.422Z,938.69